MSC Cadiz — DITI2 — position and weather

sailwx.info

Track history (hours):
 
Tides and Currents Weather Stations Pressure Air Temp Water Temp Dewpoint Dewpoint Depression Visibility Wind Speed Wind Dir Waves Ship Positions

MSC Cadiz

Last reported at 2018-Jun-19 16:20 UTC. Time now 2018-Jun-20 04:01 UTC.
Position S 24°34' W 046°34'.

Length 270 m; draft 9.3 m.

Type: Ship (hazmat cat A). MMSI: 218847000.

Date/timePositionNaut miles runAvg speedWind from/ knotsBaromVisibWave heightAir tempDewpointWater temp
2018-Jun-19 16:20S 24°34' W 046°34'721.8
2018-Jun-19 16:00S 24°27' W 046°31'1121.5
2018-Jun-19 15:29S 24°17' W 046°26'1020.5
2018-Jun-19 15:00S 24°07' W 046°23'713.9
2018-Jun-19 14:29S 24°00' W 046°20'3 6.2
2018-Jun-19 13:57S 23°58' W 046°18'1 0.0
2018-Jun-18 20:28S 23°58' W 046°17'3 7.3
2018-Jun-18 20:00S 24°01' W 046°20'4 7.9
2018-Jun-18 19:30S 24°04' W 046°22'510.8
2018-Jun-18 19:00S 24°10' W 046°21'1 2.0
2018-Jun-18 18:30S 24°10' W 046°22'1 1.3
2018-Jun-18 18:00S 24°10' W 046°23'1 1.4
2018-Jun-18 17:30S 24°11' W 046°24'1 1.4
2018-Jun-18 17:00S 24°11' W 046°24'1 1.0
2018-Jun-18 16:30S 24°11' W 046°25'3 5.3
2018-Jun-18 16:00S 24°11' W 046°22'1 2.1
2018-Jun-18 15:30S 24°13' W 046°22'1 1.2
2018-Jun-18 15:00S 24°13' W 046°22'1 1.2
2018-Jun-18 14:30S 24°13' W 046°23'0 0.9
2018-Jun-18 14:00S 24°13' W 046°23'0 0.6
2018-Jun-18 13:30S 24°13' W 046°24'2 4.2
2018-Jun-18 13:00S 24°11' W 046°23'1 1.1
2018-Jun-18 12:30S 24°11' W 046°24'1 1.3
2018-Jun-18 12:00S 24°12' W 046°24'1 1.1
2018-Jun-18 11:30S 24°12' W 046°24'2 3.2
2018-Jun-18 11:00S 24°13' W 046°23'2 3.2
2018-Jun-18 10:30S 24°14' W 046°21'1 1.3
2018-Jun-18 10:00S 24°14' W 046°22'1 1.3
2018-Jun-18 09:30S 24°14' W 046°22'1 1.2
2018-Jun-18 09:00S 24°15' W 046°23'1 1.1
2018-Jun-18 08:30S 24°15' W 046°23'1 1.5
2018-Jun-18 08:00S 24°15' W 046°22'3 7.0
2018-Jun-18 07:30S 24°16' W 046°19'5 9.2
2018-Jun-18 07:00S 24°16' W 046°14'510.1
2018-Jun-18 06:30S 24°16' W 046°08'610.1
2018-Jun-18 05:57S 24°15' W 046°02'20211.3
2018-Jun-17 12:00S 23°18' W 042°30'44512.4 140 / 81024.7 5.4 22.020.524.0
2018-Jun-16 00:00S 17°24' W 037°42'15112.6 090 / 71020.6 5.4 23.019.928.0
2018-Jun-15 12:00S 15°00' W 036°54'30912.9 090 / 71020.710.8 27.021.028.0
2018-Jun-14 12:00S 10°06' W 035°18'56411.8 100 / 231018.110.8 28.020.528.0
2018-Jun-12 12:00S 01°00' W 037°42'26612.7 120 / 201013.910.8 29.023.230.0
2018-Jun-11 15:00N 01°36' W 041°18'   100 / 61012.310.8 29.524.528.0
Track history (hours):
 
Tides and Currents Weather Stations Pressure Air Temp Water Temp Dewpoint Dewpoint Depression Visibility Wind Speed Wind Dir Waves Ship Positions

MSC Cadiz

Last reported at 2018-Jun-19 16:20 UTC. Time now 2018-Jun-20 04:01 UTC.
Position S 24°34' W 046°34'.

Length 270 m; draft 9.3 m.

Type: Ship (hazmat cat A). MMSI: 218847000.

Date/timePositionNaut miles runAvg speedWind from/ knotsBaromVisibWave heightAir tempDewpointWater temp
2018-Jun-19 16:20S 24°34' W 046°34'721.8
2018-Jun-19 16:00S 24°27' W 046°31'1121.5
2018-Jun-19 15:29S 24°17' W 046°26'1020.5
2018-Jun-19 15:00S 24°07' W 046°23'713.9
2018-Jun-19 14:29S 24°00' W 046°20'3 6.2
2018-Jun-19 13:57S 23°58' W 046°18'1 0.0
2018-Jun-18 20:28S 23°58' W 046°17'3 7.3
2018-Jun-18 20:00S 24°01' W 046°20'4 7.9
2018-Jun-18 19:30S 24°04' W 046°22'510.8
2018-Jun-18 19:00S 24°10' W 046°21'1 2.0
2018-Jun-18 18:30S 24°10' W 046°22'1 1.3
2018-Jun-18 18:00S 24°10' W 046°23'1 1.4
2018-Jun-18 17:30S 24°11' W 046°24'1 1.4
2018-Jun-18 17:00S 24°11' W 046°24'1 1.0
2018-Jun-18 16:30S 24°11' W 046°25'3 5.3
2018-Jun-18 16:00S 24°11' W 046°22'1 2.1
2018-Jun-18 15:30S 24°13' W 046°22'1 1.2
2018-Jun-18 15:00S 24°13' W 046°22'1 1.2
2018-Jun-18 14:30S 24°13' W 046°23'0 0.9
2018-Jun-18 14:00S 24°13' W 046°23'0 0.6
2018-Jun-18 13:30S 24°13' W 046°24'2 4.2
2018-Jun-18 13:00S 24°11' W 046°23'1 1.1
2018-Jun-18 12:30S 24°11' W 046°24'1 1.3
2018-Jun-18 12:00S 24°12' W 046°24'1 1.1
2018-Jun-18 11:30S 24°12' W 046°24'2 3.2
2018-Jun-18 11:00S 24°13' W 046°23'2 3.2
2018-Jun-18 10:30S 24°14' W 046°21'1 1.3
2018-Jun-18 10:00S 24°14' W 046°22'1 1.3
2018-Jun-18 09:30S 24°14' W 046°22'1 1.2
2018-Jun-18 09:00S 24°15' W 046°23'1 1.1
2018-Jun-18 08:30S 24°15' W 046°23'1 1.5
2018-Jun-18 08:00S 24°15' W 046°22'3 7.0
2018-Jun-18 07:30S 24°16' W 046°19'5 9.2
2018-Jun-18 07:00S 24°16' W 046°14'510.1
2018-Jun-18 06:30S 24°16' W 046°08'610.1
2018-Jun-18 05:57S 24°15' W 046°02'20211.3
2018-Jun-17 12:00S 23°18' W 042°30'44512.4 140 / 81024.7 5.4 22.020.524.0
2018-Jun-16 00:00S 17°24' W 037°42'15112.6 090 / 71020.6 5.4 23.019.928.0
2018-Jun-15 12:00S 15°00' W 036°54'30912.9 090 / 71020.710.8 27.021.028.0
2018-Jun-14 12:00S 10°06' W 035°18'56411.8 100 / 231018.110.8 28.020.528.0
2018-Jun-12 12:00S 01°00' W 037°42'26612.7 120 / 201013.910.8 29.023.230.0
2018-Jun-11 15:00N 01°36' W 041°18'   100 / 61012.310.8 29.524.528.0

Dump ship's entire track history